createdAt,value
2019-02-02T00:01:17.242Z,95594.00
2019-02-02T00:06:23.896Z,95593.00
2019-02-02T00:11:30.481Z,95594.00
2019-02-02T00:16:38.552Z,95588.00
2019-02-02T00:21:46.557Z,95599.00
2019-02-02T00:27:02.912Z,95591.00
2019-02-02T00:32:08.588Z,95587.00
2019-02-02T00:37:14.357Z,95599.00
2019-02-02T00:42:20.951Z,95582.00
2019-02-02T00:47:27.536Z,95598.00
2019-02-02T00:52:33.879Z,95594.00
2019-02-02T00:57:40.105Z,95598.00
2019-02-02T01:02:46.382Z,95621.00
2019-02-02T01:07:54.312Z,95618.00
2019-02-02T01:13:00.865Z,95621.00
2019-02-02T01:18:07.970Z,95618.00
2019-02-02T01:23:13.653Z,95606.00
2019-02-02T01:28:19.358Z,95592.00
2019-02-02T01:33:26.035Z,95568.00
2019-02-02T01:38:32.394Z,95595.00
2019-02-02T01:43:38.632Z,95597.00
2019-02-02T01:48:46.302Z,95583.00
2019-02-02T01:53:53.130Z,95563.00
2019-02-02T01:58:59.969Z,95575.00
2019-02-02T02:04:07.860Z,95570.00
2019-02-02T02:09:16.595Z,95557.00
2019-02-02T02:14:23.270Z,95580.00
2019-02-02T02:19:29.265Z,95616.00
2019-02-02T02:24:35.293Z,95608.00
2019-02-02T02:29:42.949Z,95627.00
2019-02-02T02:34:49.352Z,95618.00
2019-02-02T02:39:55.599Z,95620.00
2019-02-02T02:45:02.183Z,95606.00
2019-02-02T02:50:14.891Z,95600.00
2019-02-02T02:55:21.552Z,95579.00
2019-02-02T03:00:30.218Z,95589.00
2019-02-02T03:05:38.354Z,95610.00
2019-02-02T03:10:44.708Z,95627.00
2019-02-02T03:15:50.914Z,95610.00
2019-02-02T03:20:57.012Z,95605.00
2019-02-02T03:26:03.134Z,95637.00
2019-02-02T03:31:08.745Z,95620.00
2019-02-02T03:36:16.770Z,95619.00
2019-02-02T03:41:23.343Z,95619.00
2019-02-02T03:46:29.716Z,95605.00
2019-02-02T03:51:37.490Z,95626.00
2019-02-02T03:56:43.985Z,95601.00
2019-02-02T04:01:50.471Z,95576.00
2019-02-02T04:06:56.965Z,95601.00
2019-02-02T04:12:03.167Z,95607.00
2019-02-02T04:17:09.207Z,95633.00
2019-02-02T04:22:17.472Z,95633.00
2019-02-02T04:27:23.607Z,95641.00
2019-02-02T04:32:29.741Z,95653.00
2019-02-02T04:37:38.150Z,95619.00
2019-02-02T04:43:02.484Z,95623.00
2019-02-02T04:48:09.172Z,95641.00
2019-02-02T04:53:15.961Z,95641.00
2019-02-02T04:58:23.698Z,95649.00
2019-02-02T05:03:29.985Z,95665.00
2019-02-02T05:08:49.760Z,95677.00
2019-02-02T05:13:56.401Z,95677.00
2019-02-02T05:19:02.834Z,95658.00
2019-02-02T05:24:08.460Z,95665.00
2019-02-02T05:29:16.325Z,95648.00
2019-02-02T05:34:22.785Z,95656.00
2019-02-02T05:39:29.166Z,95649.00
2019-02-02T05:44:35.619Z,95672.00
2019-02-02T05:49:43.407Z,95678.00
2019-02-02T05:54:49.900Z,95665.00
2019-02-02T05:59:57.764Z,95668.00
2019-02-02T06:05:06.018Z,95686.00
2019-02-02T06:10:19.712Z,95692.00
2019-02-02T06:15:28.422Z,95672.00
2019-02-02T06:20:52.910Z,95673.00
2019-02-02T06:25:59.247Z,95688.00
2019-02-02T06:31:05.525Z,95687.00
2019-02-02T06:36:10.920Z,95699.00
2019-02-02T06:41:17.523Z,95717.00
2019-02-02T06:46:23.939Z,95729.00
2019-02-02T06:51:30.613Z,95741.00
2019-02-02T06:56:37.299Z,95727.00
2019-02-02T07:01:43.943Z,95733.00
2019-02-02T07:06:50.519Z,95736.00
2019-02-02T07:11:56.729Z,95760.00
2019-02-02T07:17:04.801Z,95771.00
2019-02-02T07:22:10.311Z,95790.00
2019-02-02T07:27:15.872Z,95781.00
2019-02-02T07:32:21.930Z,95771.00
2019-02-02T07:37:28.578Z,95777.00
2019-02-02T07:42:35.627Z,95778.00
2019-02-02T07:47:53.689Z,95771.00
2019-02-02T07:53:00.362Z,95777.00
2019-02-02T07:58:06.882Z,95780.00
2019-02-02T08:03:12.565Z,95821.00
2019-02-02T08:08:19.333Z,95825.00
2019-02-02T08:13:26.016Z,95835.00
2019-02-02T08:18:32.737Z,95840.00
2019-02-02T08:23:39.150Z,95848.00
2019-02-02T08:28:45.782Z,95861.00
2019-02-02T08:33:52.326Z,95863.00
2019-02-02T08:39:00.203Z,95863.00
2019-02-02T08:44:06.917Z,95857.00
2019-02-02T08:49:13.457Z,95866.00
2019-02-02T08:54:19.902Z,95882.00
2019-02-02T08:59:25.903Z,95862.00
2019-02-02T09:04:32.194Z,95871.00
2019-02-02T09:09:38.673Z,95881.00
2019-02-02T09:14:45.358Z,95870.00
2019-02-02T09:19:53.288Z,95884.00
2019-02-02T09:24:59.893Z,95887.00
2019-02-02T09:30:10.810Z,95882.00
2019-02-02T09:35:17.228Z,95900.00
2019-02-02T09:40:25.690Z,95895.00
2019-02-02T09:45:32.339Z,95893.00
2019-02-02T09:50:38.313Z,95895.00
2019-02-02T09:55:44.327Z,95913.00
2019-02-02T10:00:50.943Z,95908.00
2019-02-02T10:05:57.085Z,95896.00
2019-02-02T10:11:03.850Z,95900.00
2019-02-02T10:16:09.271Z,95896.00
2019-02-02T10:21:34.371Z,95902.00
2019-02-02T10:26:41.878Z,95904.00
2019-02-02T10:31:48.204Z,95919.00
2019-02-02T10:36:54.582Z,95922.00
2019-02-02T10:42:01.051Z,95947.00
2019-02-02T10:47:06.501Z,95937.00
2019-02-02T10:52:11.874Z,95939.00
2019-02-02T10:57:20.209Z,95943.00
2019-02-02T11:02:26.931Z,95931.00
2019-02-02T11:07:33.641Z,95931.00
2019-02-02T11:12:40.296Z,95942.00
2019-02-02T11:17:47.403Z,95960.00
2019-02-02T11:22:54.871Z,95981.00
2019-02-02T11:28:01.623Z,95991.00
2019-02-02T11:33:08.478Z,95997.00
2019-02-02T11:38:15.203Z,95991.00
2019-02-02T11:43:23.037Z,95999.00
2019-02-02T11:48:30.267Z,95994.00
2019-02-02T11:53:37.610Z,95984.00
2019-02-02T11:58:43.911Z,95981.00
2019-02-02T12:03:50.148Z,95985.00
2019-02-02T12:08:56.355Z,96014.00
2019-02-02T12:14:03.407Z,96022.00
2019-02-02T12:19:09.970Z,96004.00
2019-02-02T12:24:16.498Z,96019.00
2019-02-02T12:29:22.703Z,96029.00
2019-02-02T12:34:28.815Z,96040.00
2019-02-02T12:39:36.232Z,96062.00
2019-02-02T12:44:42.691Z,96063.00
2019-02-02T12:49:50.597Z,96062.00
2019-02-02T12:55:00.049Z,96060.00
2019-02-02T13:00:14.836Z,96051.00
2019-02-02T13:05:22.699Z,96065.00
2019-02-02T13:10:30.554Z,96085.00
2019-02-02T13:15:36.789Z,96078.00
2019-02-02T13:20:42.983Z,96065.00
2019-02-02T13:25:49.195Z,96090.00
2019-02-02T13:30:55.355Z,96101.00
2019-02-02T13:36:02.947Z,96104.00
2019-02-02T13:41:08.520Z,96119.00
2019-02-02T13:46:14.125Z,96108.00
2019-02-02T13:51:20.630Z,96116.00
2019-02-02T13:56:28.364Z,96108.00
2019-02-02T14:01:41.711Z,96113.00
2019-02-02T14:06:42.530Z,96099.00
2019-02-02T14:11:56.123Z,96124.00
2019-02-02T14:17:04.130Z,96142.00
2019-02-02T14:22:09.845Z,96137.00
2019-02-02T14:27:15.583Z,96157.00
2019-02-02T14:32:21.827Z,96165.00
2019-02-02T14:37:29.289Z,96175.00
2019-02-02T14:42:36.315Z,96189.00
2019-02-02T14:47:44.141Z,96174.00
2019-02-02T14:52:54.908Z,96205.00
2019-02-02T14:58:01.218Z,96210.00
2019-02-02T15:03:07.234Z,96212.00
2019-02-02T15:08:12.975Z,96220.00
2019-02-02T15:13:18.788Z,96237.00
2019-02-02T15:18:26.852Z,96253.00
2019-02-02T15:23:35.946Z,96260.00
2019-02-02T15:28:45.143Z,96267.00
2019-02-02T15:33:54.947Z,96279.00
2019-02-02T15:39:01.382Z,96295.00
2019-02-02T15:44:08.667Z,96314.00
2019-02-02T15:49:14.278Z,96324.00
2019-02-02T15:54:22.627Z,96311.00
2019-02-02T15:59:29.901Z,96324.00
2019-02-02T16:04:36.621Z,96326.00
2019-02-02T16:09:44.756Z,96336.00
2019-02-02T16:14:52.604Z,96330.00
2019-02-02T16:19:59.004Z,96350.00
2019-02-02T16:25:10.496Z,96357.00
2019-02-02T16:30:20.468Z,96361.00
2019-02-02T16:35:28.184Z,96362.00
2019-02-02T16:40:34.717Z,96375.00
2019-02-02T16:45:42.652Z,96388.00
2019-02-02T16:50:49.188Z,96391.00
2019-02-02T16:55:55.558Z,96405.00
2019-02-02T17:01:02.306Z,96420.00
2019-02-02T17:06:08.193Z,96421.00
2019-02-02T17:11:14.152Z,96432.00
2019-02-02T17:16:19.960Z,96435.00
2019-02-02T17:21:29.075Z,96444.00
2019-02-02T17:26:47.708Z,96456.00
2019-02-02T17:31:54.062Z,96477.00
2019-02-02T17:37:00.476Z,96455.00
2019-02-02T17:42:07.362Z,96480.00
2019-02-02T17:47:13.930Z,96475.00
2019-02-02T17:52:19.591Z,96486.00
2019-02-02T17:57:26.732Z,96503.00
2019-02-02T18:02:33.295Z,96505.00
2019-02-02T18:07:39.610Z,96515.00
2019-02-02T18:12:46.340Z,96540.00
2019-02-02T18:17:52.547Z,96534.00
2019-02-02T18:22:59.275Z,96545.00
2019-02-02T18:28:06.231Z,96543.00
2019-02-02T18:33:11.943Z,96553.00
2019-02-02T18:38:17.678Z,96535.00
2019-02-02T18:43:23.931Z,96545.00
2019-02-02T18:48:30.677Z,96552.00
2019-02-02T18:53:37.446Z,96560.00
2019-02-02T18:58:47.051Z,96558.00
2019-02-02T19:03:53.481Z,96561.00
2019-02-02T19:08:59.770Z,96577.00
2019-02-02T19:14:06.403Z,96576.00
2019-02-02T19:19:12.201Z,96577.00
2019-02-02T19:24:18.110Z,96602.00
2019-02-02T19:29:24.731Z,96598.00
2019-02-02T19:34:31.384Z,96609.00
2019-02-02T19:39:39.679Z,96602.00
2019-02-02T19:44:48.092Z,96591.00
2019-02-02T19:49:54.652Z,96597.00
2019-02-02T19:55:01.419Z,96615.00
2019-02-02T20:00:14.951Z,96627.00
2019-02-02T20:05:28.825Z,96637.00
2019-02-02T20:10:29.917Z,96639.00
2019-02-02T20:15:36.234Z,96656.00
2019-02-02T20:20:44.140Z,96676.00
2019-02-02T20:25:52.522Z,96693.00
2019-02-02T20:30:59.188Z,96694.00
2019-02-02T20:36:06.313Z,96685.00
2019-02-02T20:41:13.345Z,96689.00
2019-02-02T20:46:20.033Z,96701.00
2019-02-02T20:51:26.890Z,96717.00
2019-02-02T20:56:34.517Z,96723.00
2019-02-02T21:01:41.157Z,96740.00
2019-02-02T21:06:47.825Z,96741.00
2019-02-02T21:11:57.270Z,96761.00
2019-02-02T21:17:04.205Z,96763.00
2019-02-02T21:22:09.952Z,96780.00
2019-02-02T21:27:16.435Z,96770.00
2019-02-02T21:32:22.586Z,96765.00
2019-02-02T21:37:30.523Z,96759.00
2019-02-02T21:42:38.342Z,96742.00
2019-02-02T21:47:44.612Z,96745.00
2019-02-02T21:52:51.016Z,96747.00
2019-02-02T21:57:57.231Z,96749.00
2019-02-02T22:03:03.928Z,96762.00
2019-02-02T22:08:09.673Z,96782.00
2019-02-02T22:13:15.669Z,96807.00
2019-02-02T22:18:22.957Z,96824.00
2019-02-02T22:23:30.233Z,96832.00
2019-02-02T22:28:36.997Z,96854.00
2019-02-02T22:33:45.259Z,96895.00
2019-02-02T22:38:52.090Z,96885.00
2019-02-02T22:43:58.362Z,96884.00
2019-02-02T22:49:04.662Z,96910.00
2019-02-02T22:54:10.236Z,96930.00
2019-02-02T22:59:16.933Z,96923.00
2019-02-02T23:04:28.979Z,96936.00
2019-02-02T23:09:45.298Z,96910.00
2019-02-02T23:15:24.275Z,96917.00
2019-02-02T23:20:30.870Z,96922.00
2019-02-02T23:25:36.994Z,96900.00
2019-02-02T23:30:44.837Z,96889.00
2019-02-02T23:35:51.840Z,96902.00
2019-02-02T23:40:58.518Z,96891.00
2019-02-02T23:46:05.173Z,96899.00
2019-02-02T23:51:10.750Z,96911.00
2019-02-02T23:56:18.491Z,96917.00
